sensor_id;sensor_type;location;lat;lon;timestamp;temperature;humidity
11389;DHT22;5750;48.474;8.952;2022-11-15T00:00:01;5.90;99.90
11389;DHT22;5750;48.474;8.952;2022-11-15T00:02:27;6.00;99.90
11389;DHT22;5750;48.474;8.952;2022-11-15T00:04:54;6.10;99.90
11389;DHT22;5750;48.474;8.952;2022-11-15T00:07:21;6.00;99.90
11389;DHT22;5750;48.474;8.952;2022-11-15T00:09:48;6.00;99.90
11389;DHT22;5750;48.474;8.952;2022-11-15T00:12:15;5.90;99.90
11389;DHT22;5750;48.474;8.952;2022-11-15T00:14:41;5.90;99.90
11389;DHT22;5750;48.474;8.952;2022-11-15T00:17:08;5.90;99.90
11389;DHT22;5750;48.474;8.952;2022-11-15T00:19:35;5.90;99.90
11389;DHT22;5750;48.474;8.952;2022-11-15T00:22:01;5.80;99.90
11389;DHT22;5750;48.474;8.952;2022-11-15T00:24:28;5.90;99.90
11389;DHT22;5750;48.474;8.952;2022-11-15T00:26:55;5.80;99.90
11389;DHT22;5750;48.474;8.952;2022-11-15T00:29:22;5.90;99.90
11389;DHT22;5750;48.474;8.952;2022-11-15T00:31:49;5.90;99.90
11389;DHT22;5750;48.474;8.952;2022-11-15T00:34:15;5.80;99.90
11389;DHT22;5750;48.474;8.952;2022-11-15T00:36:42;5.70;99.90
11389;DHT22;5750;48.474;8.952;2022-11-15T00:39:08;5.80;99.90
11389;DHT22;5750;48.474;8.952;2022-11-15T00:41:35;5.80;99.90
11389;DHT22;5750;48.474;8.952;2022-11-15T00:44:03;5.80;99.90
11389;DHT22;5750;48.474;8.952;2022-11-15T00:46:29;5.80;99.90
11389;DHT22;5750;48.474;8.952;2022-11-15T00:48:56;5.90;99.90
11389;DHT22;5750;48.474;8.952;2022-11-15T00:51:22;5.80;99.90
11389;DHT22;5750;48.474;8.952;2022-11-15T00:53:49;5.90;99.90
11389;DHT22;5750;48.474;8.952;2022-11-15T00:56:15;5.70;99.90
11389;DHT22;5750;48.474;8.952;2022-11-15T00:58:42;5.80;99.90
11389;DHT22;5750;48.474;8.952;2022-11-15T01:01:11;5.70;99.90
11389;DHT22;5750;48.474;8.952;2022-11-15T01:03:38;5.70;99.90
11389;DHT22;5750;48.474;8.952;2022-11-15T01:06:05;5.60;99.90
11389;DHT22;5750;48.474;8.952;2022-11-15T01:08:32;5.60;99.90
11389;DHT22;5750;48.474;8.952;2022-11-15T01:11:02;5.60;99.90
11389;DHT22;5750;48.474;8.952;2022-11-15T01:13:29;5.60;99.90
11389;DHT22;5750;48.474;8.952;2022-11-15T01:15:56;5.40;99.90
11389;DHT22;5750;48.474;8.952;2022-11-15T01:18:24;5.40;99.90
11389;DHT22;5750;48.474;8.952;2022-11-15T01:20:50;5.40;99.90
11389;DHT22;5750;48.474;8.952;2022-11-15T01:23:17;5.40;99.90
11389;DHT22;5750;48.474;8.952;2022-11-15T01:25:43;5.40;99.90
11389;DHT22;5750;48.474;8.952;2022-11-15T01:28:10;5.40;99.90
11389;DHT22;5750;48.474;8.952;2022-11-15T01:30:36;5.50;99.90
11389;DHT22;5750;48.474;8.952;2022-11-15T01:33:03;5.40;99.90
11389;DHT22;5750;48.474;8.952;2022-11-15T01:35:31;5.40;99.90
11389;DHT22;5750;48.474;8.952;2022-11-15T01:37:57;5.40;99.90
11389;DHT22;5750;48.474;8.952;2022-11-15T01:40:24;5.30;99.90
11389;DHT22;5750;48.474;8.952;2022-11-15T01:42:50;5.30;99.90
11389;DHT22;5750;48.474;8.952;2022-11-15T01:45:17;5.20;99.90
11389;DHT22;5750;48.474;8.952;2022-11-15T01:47:44;5.20;99.90
11389;DHT22;5750;48.474;8.952;2022-11-15T01:50:14;5.20;99.90
11389;DHT22;5750;48.474;8.952;2022-11-15T01:52:43;5.20;99.90
11389;DHT22;5750;48.474;8.952;2022-11-15T01:55:11;5.20;99.90
11389;DHT22;5750;48.474;8.952;2022-11-15T01:57:39;5.00;99.90
11389;DHT22;5750;48.474;8.952;2022-11-15T02:00:07;5.20;99.90
11389;DHT22;5750;48.474;8.952;2022-11-15T02:02:34;5.20;99.90
11389;DHT22;5750;48.474;8.952;2022-11-15T02:05:02;5.20;99.90
11389;DHT22;5750;48.474;8.952;2022-11-15T02:07:28;5.20;99.90
11389;DHT22;5750;48.474;8.952;2022-11-15T02:09:57;5.30;99.90
11389;DHT22;5750;48.474;8.952;2022-11-15T02:12:24;5.10;99.90
11389;DHT22;5750;48.474;8.952;2022-11-15T02:14:51;5.10;99.90
11389;DHT22;5750;48.474;8.952;2022-11-15T02:17:23;5.10;99.90
11389;DHT22;5750;48.474;8.952;2022-11-15T02:20:03;5.10;99.90
11389;DHT22;5750;48.474;8.952;2022-11-15T02:22:36;5.10;99.90
11389;DHT22;5750;48.474;8.952;2022-11-15T02:25:12;5.10;99.90
11389;DHT22;5750;48.474;8.952;2022-11-15T02:27:48;5.10;99.90
11389;DHT22;5750;48.474;8.952;2022-11-15T02:30:22;5.10;99.90
11389;DHT22;5750;48.474;8.952;2022-11-15T02:32:50;5.00;99.90
11389;DHT22;5750;48.474;8.952;2022-11-15T02:35:20;4.90;99.90
11389;DHT22;5750;48.474;8.952;2022-11-15T02:37:51;4.90;99.90
11389;DHT22;5750;48.474;8.952;2022-11-15T02:40:22;4.90;99.90
11389;DHT22;5750;48.474;8.952;2022-11-15T02:42:53;4.60;99.90
11389;DHT22;5750;48.474;8.952;2022-11-15T02:45:55;4.80;99.90
11389;DHT22;5750;48.474;8.952;2022-11-15T02:48:25;4.80;99.90
11389;DHT22;5750;48.474;8.952;2022-11-15T02:50:51;4.80;99.90
11389;DHT22;5750;48.474;8.952;2022-11-15T02:53:20;4.80;99.90
11389;DHT22;5750;48.474;8.952;2022-11-15T02:55:49;4.60;99.90
11389;DHT22;5750;48.474;8.952;2022-11-15T02:58:25;4.60;99.90
11389;DHT22;5750;48.474;8.952;2022-11-15T03:00:58;4.70;99.90
11389;DHT22;5750;48.474;8.952;2022-11-15T03:06:10;4.60;99.90
11389;DHT22;5750;48.474;8.952;2022-11-15T03:08:40;4.70;99.90
11389;DHT22;5750;48.474;8.952;2022-11-15T03:11:13;4.60;99.90
11389;DHT22;5750;48.474;8.952;2022-11-15T03:13:42;4.60;99.90
11389;DHT22;5750;48.474;8.952;2022-11-15T03:16:14;4.60;99.90
11389;DHT22;5750;48.474;8.952;2022-11-15T03:18:41;4.60;99.90
11389;DHT22;5750;48.474;8.952;2022-11-15T03:21:09;4.80;99.90
11389;DHT22;5750;48.474;8.952;2022-11-15T03:23:37;4.80;99.90
11389;DHT22;5750;48.474;8.952;2022-11-15T03:26:05;4.80;99.90
11389;DHT22;5750;48.474;8.952;2022-11-15T03:28:34;4.90;99.90
11389;DHT22;5750;48.474;8.952;2022-11-15T03:31:02;4.90;99.90
11389;DHT22;5750;48.474;8.952;2022-11-15T03:33:52;4.90;99.90
11389;DHT22;5750;48.474;8.952;2022-11-15T03:36:19;5.00;99.90
11389;DHT22;5750;48.474;8.952;2022-11-15T03:38:47;5.00;99.90
11389;DHT22;5750;48.474;8.952;2022-11-15T03:41:15;4.90;99.90
11389;DHT22;5750;48.474;8.952;2022-11-15T03:43:47;4.90;99.90
11389;DHT22;5750;48.474;8.952;2022-11-15T03:46:14;4.90;99.90
11389;DHT22;5750;48.474;8.952;2022-11-15T03:48:43;5.00;99.90
11389;DHT22;5750;48.474;8.952;2022-11-15T03:51:13;5.00;99.90
11389;DHT22;5750;48.474;8.952;2022-11-15T03:53:40;5.00;99.90
11389;DHT22;5750;48.474;8.952;2022-11-15T03:56:07;5.10;99.90
11389;DHT22;5750;48.474;8.952;2022-11-15T03:58:33;5.20;99.90
11389;DHT22;5750;48.474;8.952;2022-11-15T04:01:00;5.20;99.90
11389;DHT22;5750;48.474;8.952;2022-11-15T04:03:26;5.10;99.90
11389;DHT22;5750;48.474;8.952;2022-11-15T04:05:53;5.00;99.90
11389;DHT22;5750;48.474;8.952;2022-11-15T04:08:21;5.00;99.90
11389;DHT22;5750;48.474;8.952;2022-11-15T04:10:48;5.00;99.90
11389;DHT22;5750;48.474;8.952;2022-11-15T04:13:14;5.00;99.90
11389;DHT22;5750;48.474;8.952;2022-11-15T04:15:41;5.10;99.90
11389;DHT22;5750;48.474;8.952;2022-11-15T04:18:07;5.20;99.90
11389;DHT22;5750;48.474;8.952;2022-11-15T04:20:34;5.20;99.90
11389;DHT22;5750;48.474;8.952;2022-11-15T04:23:28;5.20;99.90
11389;DHT22;5750;48.474;8.952;2022-11-15T04:26:12;5.30;99.90
11389;DHT22;5750;48.474;8.952;2022-11-15T04:28:40;5.30;99.90
11389;DHT22;5750;48.474;8.952;2022-11-15T04:31:20;5.30;99.90
11389;DHT22;5750;48.474;8.952;2022-11-15T04:33:47;5.30;99.90
11389;DHT22;5750;48.474;8.952;2022-11-15T04:36:13;5.20;99.90
11389;DHT22;5750;48.474;8.952;2022-11-15T04:38:59;5.30;99.90
11389;DHT22;5750;48.474;8.952;2022-11-15T04:41:26;5.30;99.90
11389;DHT22;5750;48.474;8.952;2022-11-15T04:43:52;5.30;99.90
11389;DHT22;5750;48.474;8.952;2022-11-15T04:46:19;5.30;99.90
11389;DHT22;5750;48.474;8.952;2022-11-15T04:48:45;5.30;99.90
11389;DHT22;5750;48.474;8.952;2022-11-15T04:51:12;5.30;99.90
11389;DHT22;5750;48.474;8.952;2022-11-15T04:53:38;5.20;99.90
11389;DHT22;5750;48.474;8.952;2022-11-15T04:56:06;5.20;99.90
11389;DHT22;5750;48.474;8.952;2022-11-15T04:58:33;5.20;99.90
11389;DHT22;5750;48.474;8.952;2022-11-15T05:01:05;5.10;99.90
11389;DHT22;5750;48.474;8.952;2022-11-15T05:03:32;5.00;99.90
11389;DHT22;5750;48.474;8.952;2022-11-15T05:06:16;4.90;99.90
11389;DHT22;5750;48.474;8.952;2022-11-15T05:08:43;4.90;99.90
11389;DHT22;5750;48.474;8.952;2022-11-15T05:11:11;4.90;99.90
11389;DHT22;5750;48.474;8.952;2022-11-15T05:13:37;4.90;99.90
11389;DHT22;5750;48.474;8.952;2022-11-15T05:16:04;4.90;99.90
11389;DHT22;5750;48.474;8.952;2022-11-15T05:18:30;5.00;99.90
11389;DHT22;5750;48.474;8.952;2022-11-15T05:21:02;5.10;99.90
11389;DHT22;5750;48.474;8.952;2022-11-15T05:23:29;5.20;99.90
11389;DHT22;5750;48.474;8.952;2022-11-15T05:25:58;5.30;99.90
11389;DHT22;5750;48.474;8.952;2022-11-15T05:28:26;5.30;99.90
11389;DHT22;5750;48.474;8.952;2022-11-15T05:30:52;5.40;99.90
11389;DHT22;5750;48.474;8.952;2022-11-15T05:33:19;5.40;99.90
11389;DHT22;5750;48.474;8.952;2022-11-15T05:35:46;5.40;99.90
11389;DHT22;5750;48.474;8.952;2022-11-15T05:38:15;5.50;99.90
11389;DHT22;5750;48.474;8.952;2022-11-15T05:40:42;5.50;99.90
11389;DHT22;5750;48.474;8.952;2022-11-15T05:43:08;5.50;99.90
11389;DHT22;5750;48.474;8.952;2022-11-15T05:45:37;5.50;99.90
11389;DHT22;5750;48.474;8.952;2022-11-15T05:48:04;5.40;99.90
11389;DHT22;5750;48.474;8.952;2022-11-15T05:50:32;5.40;99.90
11389;DHT22;5750;48.474;8.952;2022-11-15T05:52:59;5.40;99.90
11389;DHT22;5750;48.474;8.952;2022-11-15T05:55:26;5.40;99.90
11389;DHT22;5750;48.474;8.952;2022-11-15T05:57:53;5.30;99.90
11389;DHT22;5750;48.474;8.952;2022-11-15T06:00:20;5.20;99.90
11389;DHT22;5750;48.474;8.952;2022-11-15T06:02:47;5.20;99.90
11389;DHT22;5750;48.474;8.952;2022-11-15T06:05:14;5.20;99.90
11389;DHT22;5750;48.474;8.952;2022-11-15T06:07:41;5.20;99.90
11389;DHT22;5750;48.474;8.952;2022-11-15T06:10:08;5.30;99.90
11389;DHT22;5750;48.474;8.952;2022-11-15T06:12:34;5.30;99.90
11389;DHT22;5750;48.474;8.952;2022-11-15T06:15:01;5.30;99.90
11389;DHT22;5750;48.474;8.952;2022-11-15T06:17:28;5.30;99.90
11389;DHT22;5750;48.474;8.952;2022-11-15T06:19:56;5.30;99.90
11389;DHT22;5750;48.474;8.952;2022-11-15T06:22:22;5.20;99.90
11389;DHT22;5750;48.474;8.952;2022-11-15T06:24:49;5.10;99.90
11389;DHT22;5750;48.474;8.952;2022-11-15T06:27:15;5.10;99.90
11389;DHT22;5750;48.474;8.952;2022-11-15T06:29:42;5.20;99.90
11389;DHT22;5750;48.474;8.952;2022-11-15T06:32:09;5.20;99.90
11389;DHT22;5750;48.474;8.952;2022-11-15T06:34:35;5.20;99.90
11389;DHT22;5750;48.474;8.952;2022-11-15T06:37:03;5.20;99.90
11389;DHT22;5750;48.474;8.952;2022-11-15T06:39:30;5.20;99.90
11389;DHT22;5750;48.474;8.952;2022-11-15T06:41:56;5.20;99.90
11389;DHT22;5750;48.474;8.952;2022-11-15T06:44:23;5.20;99.90
11389;DHT22;5750;48.474;8.952;2022-11-15T06:46:49;5.20;99.90
11389;DHT22;5750;48.474;8.952;2022-11-15T06:49:16;5.30;99.90
11389;DHT22;5750;48.474;8.952;2022-11-15T06:51:43;5.40;99.90
11389;DHT22;5750;48.474;8.952;2022-11-15T06:54:11;5.40;99.90
11389;DHT22;5750;48.474;8.952;2022-11-15T06:56:37;5.40;99.90
11389;DHT22;5750;48.474;8.952;2022-11-15T06:59:04;5.50;99.90
11389;DHT22;5750;48.474;8.952;2022-11-15T07:01:30;5.50;99.90
11389;DHT22;5750;48.474;8.952;2022-11-15T07:03:57;5.40;99.90
11389;DHT22;5750;48.474;8.952;2022-11-15T07:06:23;5.50;99.90
11389;DHT22;5750;48.474;8.952;2022-11-15T07:08:50;5.50;99.90
11389;DHT22;5750;48.474;8.952;2022-11-15T07:11:18;5.50;99.90
11389;DHT22;5750;48.474;8.952;2022-11-15T07:13:44;5.60;99.90
11389;DHT22;5750;48.474;8.952;2022-11-15T07:16:11;5.70;99.90
11389;DHT22;5750;48.474;8.952;2022-11-15T07:18:38;5.70;99.90
11389;DHT22;5750;48.474;8.952;2022-11-15T07:21:06;5.80;99.90
11389;DHT22;5750;48.474;8.952;2022-11-15T07:23:32;5.80;99.90
11389;DHT22;5750;48.474;8.952;2022-11-15T07:25:59;5.90;99.90
11389;DHT22;5750;48.474;8.952;2022-11-15T07:28:27;5.90;99.90
11389;DHT22;5750;48.474;8.952;2022-11-15T07:30:54;6.00;99.90
11389;DHT22;5750;48.474;8.952;2022-11-15T07:33:20;6.00;99.90
11389;DHT22;5750;48.474;8.952;2022-11-15T07:35:47;6.20;99.90
11389;DHT22;5750;48.474;8.952;2022-11-15T07:38:17;6.20;99.90
11389;DHT22;5750;48.474;8.952;2022-11-15T07:40:45;6.30;99.90
11389;DHT22;5750;48.474;8.952;2022-11-15T07:43:12;6.40;99.90
11389;DHT22;5750;48.474;8.952;2022-11-15T07:45:44;6.50;99.90
11389;DHT22;5750;48.474;8.952;2022-11-15T07:48:11;6.50;99.90
11389;DHT22;5750;48.474;8.952;2022-11-15T07:50:40;6.50;99.90
11389;DHT22;5750;48.474;8.952;2022-11-15T07:53:07;6.70;99.90
11389;DHT22;5750;48.474;8.952;2022-11-15T07:55:33;6.60;99.90
11389;DHT22;5750;48.474;8.952;2022-11-15T07:58:00;6.60;99.90
11389;DHT22;5750;48.474;8.952;2022-11-15T08:00:27;6.70;99.90
11389;DHT22;5750;48.474;8.952;2022-11-15T08:03:01;6.80;99.90
11389;DHT22;5750;48.474;8.952;2022-11-15T08:05:28;6.90;99.90
11389;DHT22;5750;48.474;8.952;2022-11-15T08:07:55;6.80;99.90
11389;DHT22;5750;48.474;8.952;2022-11-15T08:10:21;6.80;99.90
11389;DHT22;5750;48.474;8.952;2022-11-15T08:12:48;6.70;99.90
11389;DHT22;5750;48.474;8.952;2022-11-15T08:15:14;6.70;99.90
11389;DHT22;5750;48.474;8.952;2022-11-15T08:17:41;6.80;99.90
11389;DHT22;5750;48.474;8.952;2022-11-15T08:20:09;6.80;99.90
11389;DHT22;5750;48.474;8.952;2022-11-15T08:22:36;6.80;99.90
11389;DHT22;5750;48.474;8.952;2022-11-15T08:25:03;6.70;99.90
11389;DHT22;5750;48.474;8.952;2022-11-15T08:27:29;6.90;99.90
11389;DHT22;5750;48.474;8.952;2022-11-15T08:29:56;7.00;99.90
11389;DHT22;5750;48.474;8.952;2022-11-15T08:32:22;7.20;99.90
11389;DHT22;5750;48.474;8.952;2022-11-15T08:34:49;7.30;99.90
11389;DHT22;5750;48.474;8.952;2022-11-15T08:37:17;7.30;99.90
11389;DHT22;5750;48.474;8.952;2022-11-15T08:39:43;7.50;99.90
11389;DHT22;5750;48.474;8.952;2022-11-15T08:42:10;7.70;99.90
11389;DHT22;5750;48.474;8.952;2022-11-15T08:44:37;8.00;99.90
11389;DHT22;5750;48.474;8.952;2022-11-15T08:47:03;8.00;99.90
11389;DHT22;5750;48.474;8.952;2022-11-15T08:49:30;8.10;99.90
11389;DHT22;5750;48.474;8.952;2022-11-15T08:51:56;8.30;99.90
11389;DHT22;5750;48.474;8.952;2022-11-15T08:54:24;8.50;99.90
11389;DHT22;5750;48.474;8.952;2022-11-15T08:56:51;8.50;99.90
11389;DHT22;5750;48.474;8.952;2022-11-15T08:59:17;8.60;99.90
11389;DHT22;5750;48.474;8.952;2022-11-15T09:01:44;8.70;99.90
11389;DHT22;5750;48.474;8.952;2022-11-15T09:04:10;8.80;99.90
11389;DHT22;5750;48.474;8.952;2022-11-15T09:06:37;8.80;99.90
11389;DHT22;5750;48.474;8.952;2022-11-15T09:09:03;8.80;99.90
11389;DHT22;5750;48.474;8.952;2022-11-15T09:11:31;8.90;99.90
11389;DHT22;5750;48.474;8.952;2022-11-15T09:13:58;9.10;99.90
11389;DHT22;5750;48.474;8.952;2022-11-15T09:16:24;9.20;99.90
11389;DHT22;5750;48.474;8.952;2022-11-15T09:18:52;9.10;99.90
11389;DHT22;5750;48.474;8.952;2022-11-15T09:21:18;9.20;99.90
11389;DHT22;5750;48.474;8.952;2022-11-15T09:23:45;9.30;99.90
11389;DHT22;5750;48.474;8.952;2022-11-15T09:26:12;9.50;99.90
11389;DHT22;5750;48.474;8.952;2022-11-15T09:28:40;9.50;99.90
11389;DHT22;5750;48.474;8.952;2022-11-15T09:31:07;9.60;99.90
11389;DHT22;5750;48.474;8.952;2022-11-15T09:33:34;9.60;99.90
11389;DHT22;5750;48.474;8.952;2022-11-15T09:36:01;9.70;99.90
11389;DHT22;5750;48.474;8.952;2022-11-15T09:38:28;9.80;99.90
11389;DHT22;5750;48.474;8.952;2022-11-15T09:40:58;9.90;99.90
11389;DHT22;5750;48.474;8.952;2022-11-15T09:43:35;10.10;99.90
11389;DHT22;5750;48.474;8.952;2022-11-15T09:46:09;10.20;99.90
11389;DHT22;5750;48.474;8.952;2022-11-15T09:51:26;10.50;99.90
11389;DHT22;5750;48.474;8.952;2022-11-15T09:53:56;10.60;99.90
11389;DHT22;5750;48.474;8.952;2022-11-15T09:56:25;10.60;99.90
11389;DHT22;5750;48.474;8.952;2022-11-15T09:58:54;10.60;99.90
11389;DHT22;5750;48.474;8.952;2022-11-15T10:01:28;10.70;99.90
11389;DHT22;5750;48.474;8.952;2022-11-15T10:03:59;10.70;99.90
11389;DHT22;5750;48.474;8.952;2022-11-15T10:06:26;10.80;99.90
11389;DHT22;5750;48.474;8.952;2022-11-15T10:08:55;10.80;99.90
11389;DHT22;5750;48.474;8.952;2022-11-15T10:11:25;10.90;99.90
11389;DHT22;5750;48.474;8.952;2022-11-15T10:13:52;11.00;99.90
11389;DHT22;5750;48.474;8.952;2022-11-15T10:16:30;10.90;99.90
11389;DHT22;5750;48.474;8.952;2022-11-15T10:19:00;10.80;99.90
11389;DHT22;5750;48.474;8.952;2022-11-15T10:21:29;11.00;99.90
11389;DHT22;5750;48.474;8.952;2022-11-15T10:23:59;11.00;99.90
11389;DHT22;5750;48.474;8.952;2022-11-15T10:26:25;11.10;99.90
11389;DHT22;5750;48.474;8.952;2022-11-15T10:28:52;11.10;99.90
11389;DHT22;5750;48.474;8.952;2022-11-15T10:31:22;11.00;99.90
11389;DHT22;5750;48.474;8.952;2022-11-15T10:33:50;11.00;99.90
11389;DHT22;5750;48.474;8.952;2022-11-15T10:36:21;10.90;99.90
11389;DHT22;5750;48.474;8.952;2022-11-15T10:38:58;11.00;99.90
11389;DHT22;5750;48.474;8.952;2022-11-15T10:41:32;11.00;99.90
11389;DHT22;5750;48.474;8.952;2022-11-15T10:44:07;11.00;99.90
11389;DHT22;5750;48.474;8.952;2022-11-15T10:46:35;11.00;99.90
11389;DHT22;5750;48.474;8.952;2022-11-15T10:49:11;11.00;99.90
11389;DHT22;5750;48.474;8.952;2022-11-15T10:51:40;10.90;99.90
11389;DHT22;5750;48.474;8.952;2022-11-15T10:54:07;10.80;99.90
11389;DHT22;5750;48.474;8.952;2022-11-15T10:56:36;10.80;99.90
11389;DHT22;5750;48.474;8.952;2022-11-15T10:59:03;10.80;99.90
11389;DHT22;5750;48.474;8.952;2022-11-15T11:01:29;10.70;99.90
11389;DHT22;5750;48.474;8.952;2022-11-15T11:04:00;10.80;99.90
11389;DHT22;5750;48.474;8.952;2022-11-15T11:06:28;10.80;99.90
11389;DHT22;5750;48.474;8.952;2022-11-15T11:08:55;10.80;99.90
11389;DHT22;5750;48.474;8.952;2022-11-15T11:11:22;10.80;99.90
11389;DHT22;5750;48.474;8.952;2022-11-15T11:13:49;10.80;99.90
11389;DHT22;5750;48.474;8.952;2022-11-15T11:19:04;11.00;99.90
11389;DHT22;5750;48.474;8.952;2022-11-15T11:21:38;11.10;99.90
11389;DHT22;5750;48.474;8.952;2022-11-15T11:24:08;11.20;99.90
11389;DHT22;5750;48.474;8.952;2022-11-15T11:26:40;11.20;99.90
11389;DHT22;5750;48.474;8.952;2022-11-15T11:29:13;11.30;99.90
11389;DHT22;5750;48.474;8.952;2022-11-15T11:31:43;11.40;99.90
11389;DHT22;5750;48.474;8.952;2022-11-15T11:34:14;11.40;99.90
11389;DHT22;5750;48.474;8.952;2022-11-15T11:36:44;11.50;99.90
11389;DHT22;5750;48.474;8.952;2022-11-15T11:39:18;11.50;99.90
11389;DHT22;5750;48.474;8.952;2022-11-15T11:41:53;11.60;99.90
11389;DHT22;5750;48.474;8.952;2022-11-15T11:44:27;11.60;99.90
11389;DHT22;5750;48.474;8.952;2022-11-15T11:46:55;11.60;99.90
11389;DHT22;5750;48.474;8.952;2022-11-15T11:49:25;11.60;99.90
11389;DHT22;5750;48.474;8.952;2022-11-15T11:51:54;11.50;99.90
11389;DHT22;5750;48.474;8.952;2022-11-15T11:54:24;11.60;99.90
11389;DHT22;5750;48.474;8.952;2022-11-15T11:56:52;11.50;99.90
11389;DHT22;5750;48.474;8.952;2022-11-15T11:59:22;11.50;99.90
11389;DHT22;5750;48.474;8.952;2022-11-15T12:01:49;11.50;99.90
11389;DHT22;5750;48.474;8.952;2022-11-15T12:04:17;11.50;99.90
11389;DHT22;5750;48.474;8.952;2022-11-15T12:06:46;11.50;99.90
11389;DHT22;5750;48.474;8.952;2022-11-15T12:09:16;11.50;99.90
11389;DHT22;5750;48.474;8.952;2022-11-15T12:11:55;11.60;99.90
11389;DHT22;5750;48.474;8.952;2022-11-15T12:14:28;11.60;99.90
11389;DHT22;5750;48.474;8.952;2022-11-15T12:16:56;11.60;99.90
11389;DHT22;5750;48.474;8.952;2022-11-15T12:19:23;11.70;99.90
11389;DHT22;5750;48.474;8.952;2022-11-15T12:21:50;11.70;99.90
11389;DHT22;5750;48.474;8.952;2022-11-15T12:24:22;11.80;99.90
11389;DHT22;5750;48.474;8.952;2022-11-15T12:26:51;11.90;99.90
11389;DHT22;5750;48.474;8.952;2022-11-15T12:29:19;12.00;99.90
11389;DHT22;5750;48.474;8.952;2022-11-15T12:31:48;12.00;99.90
11389;DHT22;5750;48.474;8.952;2022-11-15T12:34:29;12.10;99.90
11389;DHT22;5750;48.474;8.952;2022-11-15T12:36:56;12.10;99.90
11389;DHT22;5750;48.474;8.952;2022-11-15T12:44:57;12.20;99.90
11389;DHT22;5750;48.474;8.952;2022-11-15T12:47:25;12.10;99.90
11389;DHT22;5750;48.474;8.952;2022-11-15T12:49:52;12.20;99.90
11389;DHT22;5750;48.474;8.952;2022-11-15T12:52:19;12.20;99.90
11389;DHT22;5750;48.474;8.952;2022-11-15T12:54:50;12.20;99.90
11389;DHT22;5750;48.474;8.952;2022-11-15T12:57:33;12.30;99.90
11389;DHT22;5750;48.474;8.952;2022-11-15T13:00:02;12.30;99.90
11389;DHT22;5750;48.474;8.952;2022-11-15T13:02:32;12.30;99.90
11389;DHT22;5750;48.474;8.952;2022-11-15T13:07:57;12.30;99.90
11389;DHT22;5750;48.474;8.952;2022-11-15T13:10:29;12.30;99.90
11389;DHT22;5750;48.474;8.952;2022-11-15T13:12:56;12.30;99.90
11389;DHT22;5750;48.474;8.952;2022-11-15T13:15:31;12.30;99.90
11389;DHT22;5750;48.474;8.952;2022-11-15T13:18:18;12.30;99.90
11389;DHT22;5750;48.474;8.952;2022-11-15T13:20:45;12.30;99.90
11389;DHT22;5750;48.474;8.952;2022-11-15T13:23:12;12.40;99.90
11389;DHT22;5750;48.474;8.952;2022-11-15T13:25:48;12.40;99.90
11389;DHT22;5750;48.474;8.952;2022-11-15T13:28:18;12.50;99.90
11389;DHT22;5750;48.474;8.952;2022-11-15T13:30:50;12.50;99.90
11389;DHT22;5750;48.474;8.952;2022-11-15T13:33:17;12.50;99.90
11389;DHT22;5750;48.474;8.952;2022-11-15T13:35:45;12.40;99.90
11389;DHT22;5750;48.474;8.952;2022-11-15T13:38:18;12.40;99.90
11389;DHT22;5750;48.474;8.952;2022-11-15T13:40:45;12.40;99.90
11389;DHT22;5750;48.474;8.952;2022-11-15T13:43:17;12.30;99.90
11389;DHT22;5750;48.474;8.952;2022-11-15T13:45:44;12.30;99.90
11389;DHT22;5750;48.474;8.952;2022-11-15T13:48:12;12.20;99.90
11389;DHT22;5750;48.474;8.952;2022-11-15T13:50:38;12.20;99.90
11389;DHT22;5750;48.474;8.952;2022-11-15T13:53:05;12.20;99.90
11389;DHT22;5750;48.474;8.952;2022-11-15T13:55:32;12.10;99.90
11389;DHT22;5750;48.474;8.952;2022-11-15T13:57:59;12.00;99.90
11389;DHT22;5750;48.474;8.952;2022-11-15T14:00:32;12.00;99.90
11389;DHT22;5750;48.474;8.952;2022-11-15T14:03:08;12.00;99.90
11389;DHT22;5750;48.474;8.952;2022-11-15T14:05:41;12.00;99.90
11389;DHT22;5750;48.474;8.952;2022-11-15T14:08:12;12.10;99.90
11389;DHT22;5750;48.474;8.952;2022-11-15T14:10:46;12.10;99.90
11389;DHT22;5750;48.474;8.952;2022-11-15T14:13:26;12.10;99.90
11389;DHT22;5750;48.474;8.952;2022-11-15T14:15:53;12.10;99.90
11389;DHT22;5750;48.474;8.952;2022-11-15T14:21:06;12.10;99.90
11389;DHT22;5750;48.474;8.952;2022-11-15T14:23:33;12.10;99.90
11389;DHT22;5750;48.474;8.952;2022-11-15T14:26:00;12.10;99.90
11389;DHT22;5750;48.474;8.952;2022-11-15T14:28:30;12.00;99.90
11389;DHT22;5750;48.474;8.952;2022-11-15T14:30:59;12.00;99.90
11389;DHT22;5750;48.474;8.952;2022-11-15T14:33:27;12.00;99.90
11389;DHT22;5750;48.474;8.952;2022-11-15T14:35:55;11.90;99.90
11389;DHT22;5750;48.474;8.952;2022-11-15T14:38:24;11.90;99.90
11389;DHT22;5750;48.474;8.952;2022-11-15T14:40:50;11.80;99.90
11389;DHT22;5750;48.474;8.952;2022-11-15T14:43:18;11.70;99.90
11389;DHT22;5750;48.474;8.952;2022-11-15T14:45:45;11.70;99.90
11389;DHT22;5750;48.474;8.952;2022-11-15T14:48:12;11.70;99.90
11389;DHT22;5750;48.474;8.952;2022-11-15T14:50:38;11.70;99.90
11389;DHT22;5750;48.474;8.952;2022-11-15T14:53:05;11.60;99.90
11389;DHT22;5750;48.474;8.952;2022-11-15T14:55:34;11.70;99.90
11389;DHT22;5750;48.474;8.952;2022-11-15T14:58:01;11.60;99.90
11389;DHT22;5750;48.474;8.952;2022-11-15T15:00:29;11.50;99.90
11389;DHT22;5750;48.474;8.952;2022-11-15T15:02:56;11.60;99.90
11389;DHT22;5750;48.474;8.952;2022-11-15T15:05:23;11.50;99.90
11389;DHT22;5750;48.474;8.952;2022-11-15T15:07:50;11.60;99.90
11389;DHT22;5750;48.474;8.952;2022-11-15T15:10:18;11.60;99.90
11389;DHT22;5750;48.474;8.952;2022-11-15T15:12:46;11.70;99.90
11389;DHT22;5750;48.474;8.952;2022-11-15T15:15:14;11.70;99.90
11389;DHT22;5750;48.474;8.952;2022-11-15T15:17:40;11.70;99.90
11389;DHT22;5750;48.474;8.952;2022-11-15T15:20:07;11.70;99.90
11389;DHT22;5750;48.474;8.952;2022-11-15T15:22:34;11.70;99.90
11389;DHT22;5750;48.474;8.952;2022-11-15T15:25:00;11.60;99.90
11389;DHT22;5750;48.474;8.952;2022-11-15T15:27:27;11.60;99.90
11389;DHT22;5750;48.474;8.952;2022-11-15T15:29:55;11.60;99.90
11389;DHT22;5750;48.474;8.952;2022-11-15T15:32:22;11.50;99.90
11389;DHT22;5750;48.474;8.952;2022-11-15T15:34:48;11.60;99.90
11389;DHT22;5750;48.474;8.952;2022-11-15T15:37:22;11.50;99.90
11389;DHT22;5750;48.474;8.952;2022-11-15T15:39:52;11.50;99.90
11389;DHT22;5750;48.474;8.952;2022-11-15T15:42:19;11.40;99.90
11389;DHT22;5750;48.474;8.952;2022-11-15T15:44:46;11.40;99.90
11389;DHT22;5750;48.474;8.952;2022-11-15T15:47:14;11.30;99.90
11389;DHT22;5750;48.474;8.952;2022-11-15T15:49:41;11.30;99.90
11389;DHT22;5750;48.474;8.952;2022-11-15T15:52:08;11.20;99.90
11389;DHT22;5750;48.474;8.952;2022-11-15T15:54:34;11.10;99.90
11389;DHT22;5750;48.474;8.952;2022-11-15T15:57:01;11.10;99.90
11389;DHT22;5750;48.474;8.952;2022-11-15T15:59:28;11.10;99.90
11389;DHT22;5750;48.474;8.952;2022-11-15T16:01:54;11.10;99.90
11389;DHT22;5750;48.474;8.952;2022-11-15T16:04:22;11.10;99.90
11389;DHT22;5750;48.474;8.952;2022-11-15T16:06:49;11.00;99.90
11389;DHT22;5750;48.474;8.952;2022-11-15T16:09:18;11.00;99.90
11389;DHT22;5750;48.474;8.952;2022-11-15T16:12:05;11.10;99.90
11389;DHT22;5750;48.474;8.952;2022-11-15T16:14:31;11.20;99.90
11389;DHT22;5750;48.474;8.952;2022-11-15T16:16:58;11.10;99.90
11389;DHT22;5750;48.474;8.952;2022-11-15T16:19:26;11.10;99.90
11389;DHT22;5750;48.474;8.952;2022-11-15T16:21:52;11.00;99.90